createdAt,value
2022-09-24T00:01:26.817Z,21.60
2022-09-24T00:03:55.996Z,21.35
2022-09-24T00:06:24.049Z,21.35
2022-09-24T00:08:52.268Z,18.92
2022-09-24T00:11:21.522Z,17.00
2022-09-24T00:13:49.510Z,14.77
2022-09-24T00:16:17.931Z,20.58
2022-09-24T00:18:45.155Z,16.95
2022-09-24T00:21:16.667Z,22.90
2022-09-24T00:23:44.146Z,18.00
2022-09-24T00:26:31.415Z,17.05
2022-09-24T00:28:58.816Z,17.60
2022-09-24T00:31:26.588Z,19.55
2022-09-24T00:33:54.297Z,17.65
2022-09-24T00:36:22.278Z,17.90
2022-09-24T00:38:51.199Z,18.65
2022-09-24T00:41:20.265Z,21.63
2022-09-24T00:43:48.327Z,16.00
2022-09-24T00:46:18.547Z,17.73
2022-09-24T00:48:47.108Z,15.07
2022-09-24T00:51:16.898Z,14.90
2022-09-24T00:53:44.719Z,19.60
2022-09-24T00:56:15.530Z,13.52
2022-09-24T00:58:45.020Z,15.32
2022-09-24T01:01:12.478Z,16.10
2022-09-24T01:03:41.131Z,14.38
2022-09-24T01:06:09.092Z,15.82
2022-09-24T01:08:36.454Z,20.45
2022-09-24T01:11:03.620Z,18.02
2022-09-24T01:13:49.532Z,23.55
2022-09-24T01:16:33.181Z,19.27
2022-09-24T01:19:09.261Z,18.38
2022-09-24T01:21:45.762Z,21.30
2022-09-24T01:24:29.566Z,20.92
2022-09-24T01:27:04.971Z,19.45
2022-09-24T01:29:43.393Z,19.67
2022-09-24T01:32:18.363Z,17.10
2022-09-24T01:34:48.377Z,23.55
2022-09-24T01:37:16.995Z,18.27
2022-09-24T01:39:46.096Z,19.40
2022-09-24T01:42:14.127Z,23.05
2022-09-24T01:44:44.290Z,21.05
2022-09-24T01:47:15.105Z,21.90
2022-09-24T01:49:42.569Z,19.63
2022-09-24T01:52:13.647Z,17.60
2022-09-24T01:54:50.761Z,17.60
2022-09-24T01:57:24.104Z,22.52
2022-09-24T01:59:51.191Z,18.63
2022-09-24T02:02:37.371Z,21.02
2022-09-24T02:05:14.699Z,21.65
2022-09-24T02:08:05.275Z,23.65
2022-09-24T02:10:35.365Z,19.25
2022-09-24T02:13:04.589Z,18.83
2022-09-24T02:15:37.639Z,22.30
2022-09-24T02:18:07.544Z,21.00
2022-09-24T02:20:36.256Z,22.35
2022-09-24T02:23:04.850Z,21.95
2022-09-24T02:25:34.800Z,20.35
2022-09-24T02:28:03.191Z,20.48
2022-09-24T02:30:34.813Z,22.42
2022-09-24T02:33:02.080Z,20.38
2022-09-24T02:35:29.265Z,21.55
2022-09-24T02:37:56.388Z,21.35
2022-09-24T02:40:23.700Z,19.48
2022-09-24T02:42:50.853Z,24.85
2022-09-24T02:45:17.977Z,18.67
2022-09-24T02:47:45.070Z,19.05
2022-09-24T02:50:12.210Z,22.42
2022-09-24T02:52:39.355Z,20.95
2022-09-24T02:55:06.646Z,22.00
2022-09-24T02:57:34.467Z,24.58
2022-09-24T03:00:01.972Z,22.88
2022-09-24T03:02:29.165Z,19.95
2022-09-24T03:04:56.506Z,18.40
2022-09-24T03:07:23.652Z,17.75
2022-09-24T03:09:50.742Z,18.48
2022-09-24T03:12:17.895Z,16.83
2022-09-24T03:14:45.025Z,18.98
2022-09-24T03:17:12.169Z,21.80
2022-09-24T03:19:39.474Z,21.75
2022-09-24T03:22:06.665Z,18.17
2022-09-24T03:24:33.824Z,18.27
2022-09-24T03:27:00.959Z,18.73
2022-09-24T03:29:46.685Z,19.23
2022-09-24T03:32:13.820Z,17.88
2022-09-24T03:34:40.947Z,18.55
2022-09-24T03:37:08.666Z,19.70
2022-09-24T03:39:35.787Z,18.15
2022-09-24T03:42:02.911Z,24.77
2022-09-24T03:44:30.102Z,20.02
2022-09-24T03:46:57.292Z,22.38
2022-09-24T03:49:25.788Z,21.75
2022-09-24T03:51:52.897Z,25.13
2022-09-24T03:54:20.105Z,22.08
2022-09-24T03:56:47.231Z,19.92
2022-09-24T03:59:14.353Z,23.50
2022-09-24T04:01:41.488Z,25.65
2022-09-24T04:04:08.755Z,24.20
2022-09-24T04:06:35.890Z,20.92
2022-09-24T04:09:03.035Z,23.67
2022-09-24T04:11:30.278Z,20.02
2022-09-24T04:13:57.449Z,17.30
2022-09-24T04:16:24.624Z,19.50
2022-09-24T04:18:51.819Z,19.35
2022-09-24T04:21:19.015Z,16.58
2022-09-24T04:23:46.204Z,16.33
2022-09-24T04:26:13.329Z,20.45
2022-09-24T04:28:40.486Z,16.67
2022-09-24T04:31:07.695Z,16.38
2022-09-24T04:33:34.935Z,15.82
2022-09-24T04:36:02.157Z,17.35
2022-09-24T04:38:29.331Z,18.67
2022-09-24T04:41:04.880Z,17.02
2022-09-24T04:43:33.144Z,21.33
2022-09-24T04:46:01.974Z,16.90
2022-09-24T04:48:29.825Z,18.02
2022-09-24T04:50:57.537Z,19.65
2022-09-24T04:53:25.357Z,18.02
2022-09-24T04:55:52.492Z,19.25
2022-09-24T04:58:19.687Z,19.85
2022-09-24T05:00:47.643Z,18.73
2022-09-24T05:03:15.396Z,16.55
2022-09-24T05:05:42.660Z,17.85
2022-09-24T05:08:10.028Z,15.88
2022-09-24T05:10:37.152Z,15.48
2022-09-24T05:13:04.355Z,13.63
2022-09-24T05:15:31.574Z,17.80
2022-09-24T05:17:59.202Z,14.10
2022-09-24T05:20:26.680Z,16.83
2022-09-24T05:22:53.969Z,15.13
2022-09-24T05:25:23.082Z,20.33
2022-09-24T05:27:51.188Z,17.77
2022-09-24T05:30:19.174Z,17.25
2022-09-24T05:32:49.406Z,23.17
2022-09-24T05:35:16.584Z,30.73
2022-09-24T05:37:44.066Z,26.73
2022-09-24T05:40:29.962Z,24.42
2022-09-24T05:43:01.395Z,15.82
2022-09-24T05:45:29.134Z,14.40
2022-09-24T05:47:56.289Z,15.63
2022-09-24T05:50:23.562Z,12.88
2022-09-24T05:52:50.785Z,12.65
2022-09-24T05:55:18.008Z,16.60
2022-09-24T05:57:45.241Z,15.43
2022-09-24T06:00:12.596Z,19.15
2022-09-24T06:02:40.156Z,18.58
2022-09-24T06:05:07.579Z,16.20
2022-09-24T06:07:34.808Z,23.58
2022-09-24T06:10:02.044Z,32.38
2022-09-24T06:12:29.157Z,25.33
2022-09-24T06:14:56.264Z,28.85
2022-09-24T06:17:23.687Z,25.75
2022-09-24T06:19:50.866Z,24.88
2022-09-24T06:22:18.020Z,19.67
2022-09-24T06:24:45.901Z,14.00
2022-09-24T06:27:13.072Z,12.77
2022-09-24T06:29:40.275Z,12.80
2022-09-24T06:32:08.181Z,14.75
2022-09-24T06:34:35.444Z,15.00
2022-09-24T06:37:02.551Z,17.20
2022-09-24T06:39:29.677Z,10.30
2022-09-24T06:41:57.960Z,12.43
2022-09-24T06:44:26.072Z,10.95
2022-09-24T06:46:53.291Z,14.77
2022-09-24T06:49:20.455Z,15.57
2022-09-24T06:51:47.562Z,16.63
2022-09-24T06:54:14.749Z,15.88
2022-09-24T06:56:41.884Z,11.40
2022-09-24T06:59:09.438Z,14.82
2022-09-24T07:01:36.770Z,23.63
2022-09-24T07:04:04.255Z,30.85
2022-09-24T07:06:51.379Z,29.05
2022-09-24T07:09:18.556Z,20.85
2022-09-24T07:11:46.579Z,20.52
2022-09-24T07:14:14.061Z,17.13
2022-09-24T07:16:41.248Z,14.95
2022-09-24T07:19:08.708Z,14.18
2022-09-24T07:21:35.993Z,16.92
2022-09-24T07:24:03.246Z,14.95
2022-09-24T07:26:55.367Z,15.38
2022-09-24T07:29:22.538Z,23.30
2022-09-24T07:31:49.799Z,19.52
2022-09-24T07:34:16.968Z,23.92
2022-09-24T07:36:44.247Z,19.15
2022-09-24T07:39:11.389Z,13.65
2022-09-24T07:41:42.486Z,11.75
2022-09-24T07:44:10.262Z,10.20
2022-09-24T07:46:37.548Z,12.82
2022-09-24T07:49:04.773Z,10.48
2022-09-24T07:51:31.954Z,9.95
2022-09-24T07:53:59.316Z,10.68
2022-09-24T07:56:26.519Z,8.88
2022-09-24T07:58:53.910Z,13.70
2022-09-24T08:01:21.296Z,14.05
2022-09-24T08:03:48.596Z,12.00
2022-09-24T08:06:15.809Z,13.52
2022-09-24T08:08:43.490Z,12.63
2022-09-24T08:11:13.326Z,8.98
2022-09-24T08:13:40.515Z,14.77
2022-09-24T08:16:07.715Z,11.15
2022-09-24T08:18:35.158Z,12.13
2022-09-24T08:21:10.891Z,11.77
2022-09-24T08:23:38.487Z,13.23
2022-09-24T08:26:06.071Z,17.70
2022-09-24T08:28:33.270Z,12.35
2022-09-24T08:31:01.175Z,16.38
2022-09-24T08:33:28.771Z,14.43
2022-09-24T08:35:55.964Z,10.32
2022-09-24T08:38:23.181Z,14.80
2022-09-24T08:41:00.267Z,16.55
2022-09-24T08:43:47.922Z,13.95
2022-09-24T08:46:36.379Z,13.02
2022-09-24T08:49:04.798Z,16.80
2022-09-24T08:51:40.702Z,15.48
2022-09-24T08:54:09.517Z,14.07
2022-09-24T08:56:38.802Z,20.63
2022-09-24T08:59:23.430Z,13.80
2022-09-24T09:02:02.430Z,17.75
2022-09-24T09:04:29.685Z,15.10
2022-09-24T09:07:02.571Z,11.95
2022-09-24T09:09:41.729Z,11.63
2022-09-24T09:12:13.540Z,13.38
2022-09-24T09:14:43.753Z,11.67
2022-09-24T09:17:29.780Z,15.50
2022-09-24T09:19:58.539Z,18.25
2022-09-24T09:22:29.114Z,15.38
2022-09-24T09:25:03.498Z,13.02
2022-09-24T09:27:31.398Z,22.20
2022-09-24T09:29:59.798Z,11.30
2022-09-24T09:32:30.530Z,11.45
2022-09-24T09:35:21.245Z,12.40
2022-09-24T09:37:59.380Z,20.67
2022-09-24T09:40:38.938Z,13.95
2022-09-24T09:43:12.553Z,16.52
2022-09-24T09:45:48.948Z,13.30
2022-09-24T09:48:16.686Z,14.60
2022-09-24T09:50:51.378Z,17.25
2022-09-24T09:53:28.535Z,12.73
2022-09-24T09:55:57.455Z,14.88
2022-09-24T09:58:26.439Z,13.93
2022-09-24T10:00:54.082Z,14.82
2022-09-24T10:03:25.445Z,15.93
2022-09-24T10:08:23.822Z,10.88
2022-09-24T10:10:58.620Z,10.02
2022-09-24T10:13:26.075Z,17.60
2022-09-24T10:15:54.372Z,10.57
2022-09-24T10:18:28.325Z,10.02
2022-09-24T10:20:56.800Z,13.32
2022-09-24T10:23:27.540Z,13.95
2022-09-24T10:25:59.100Z,11.95
2022-09-24T10:28:45.883Z,11.45
2022-09-24T10:31:15.814Z,10.18
2022-09-24T10:33:47.234Z,12.43
2022-09-24T10:36:20.580Z,13.82
2022-09-24T10:38:47.714Z,11.35
2022-09-24T10:41:26.116Z,9.10
2022-09-24T10:43:57.647Z,13.02
2022-09-24T10:46:24.776Z,10.10
2022-09-24T10:48:54.954Z,12.52
2022-09-24T10:51:28.817Z,12.40
2022-09-24T10:54:14.826Z,11.52
2022-09-24T10:56:49.264Z,12.00
2022-09-24T10:59:22.452Z,10.98
2022-09-24T11:01:55.221Z,10.95
2022-09-24T11:04:41.594Z,8.65
2022-09-24T11:07:14.931Z,8.32
2022-09-24T11:09:54.936Z,10.02
2022-09-24T11:12:28.454Z,10.43
2022-09-24T11:15:14.457Z,10.23
2022-09-24T11:18:04.935Z,8.52
2022-09-24T11:20:37.383Z,10.88
2022-09-24T11:23:08.238Z,12.65
2022-09-24T11:25:42.820Z,10.45
2022-09-24T11:28:29.696Z,8.75
2022-09-24T11:31:05.946Z,9.70
2022-09-24T11:33:52.228Z,17.35
2022-09-24T11:36:42.701Z,9.77
2022-09-24T11:39:13.392Z,10.70
2022-09-24T11:41:49.742Z,9.27
2022-09-24T11:44:27.105Z,27.67
2022-09-24T11:47:01.464Z,9.05
2022-09-24T11:49:35.639Z,12.60
2022-09-24T11:52:24.109Z,10.65
2022-09-24T11:55:00.193Z,8.60
2022-09-24T11:57:35.367Z,8.50
2022-09-24T12:00:29.553Z,6.93
2022-09-24T12:03:05.933Z,6.55
2022-09-24T12:05:38.599Z,11.00
2022-09-24T12:08:17.476Z,11.55
2022-09-24T12:10:47.912Z,9.25
2022-09-24T12:13:23.998Z,8.75
2022-09-24T12:16:07.372Z,7.82
2022-09-24T12:18:34.536Z,7.40
2022-09-24T12:21:03.850Z,7.60
2022-09-24T12:23:33.616Z,7.82
2022-09-24T12:26:03.843Z,7.90
2022-09-24T12:29:14.503Z,7.18
2022-09-24T12:32:12.202Z,5.57
2022-09-24T12:34:42.445Z,7.22
2022-09-24T12:37:12.489Z,8.80
2022-09-24T12:39:45.763Z,7.35
2022-09-24T12:42:13.774Z,8.50
2022-09-24T12:44:46.859Z,5.40
2022-09-24T12:47:19.079Z,7.53
2022-09-24T12:49:49.172Z,7.70
2022-09-24T12:52:25.142Z,7.32
2022-09-24T12:54:59.061Z,7.15
2022-09-24T12:57:28.760Z,6.70
2022-09-24T12:59:57.416Z,7.63
2022-09-24T13:02:24.670Z,7.00
2022-09-24T13:05:04.370Z,6.15
2022-09-24T13:07:33.399Z,6.90
2022-09-24T13:10:12.979Z,5.28
2022-09-24T13:12:40.335Z,6.00
2022-09-24T13:15:09.330Z,8.77
2022-09-24T13:17:40.373Z,8.77
2022-09-24T13:20:09.191Z,7.88
2022-09-24T13:22:37.905Z,6.97
2022-09-24T13:25:08.422Z,7.18
2022-09-24T13:27:37.937Z,7.20
2022-09-24T13:30:25.483Z,9.88
2022-09-24T13:33:02.534Z,8.70
2022-09-24T13:35:32.620Z,9.00
2022-09-24T13:38:07.658Z,9.75
2022-09-24T13:40:44.919Z,7.25
2022-09-24T13:43:12.152Z,7.70
2022-09-24T13:45:42.459Z,9.88
2022-09-24T13:48:25.274Z,7.10
2022-09-24T13:53:25.243Z,7.07
2022-09-24T13:56:01.073Z,8.95
2022-09-24T13:58:28.297Z,6.60
2022-09-24T14:00:55.556Z,7.13
2022-09-24T14:03:24.864Z,6.95
2022-09-24T14:05:52.415Z,7.57
2022-09-24T14:08:22.087Z,8.10
2022-09-24T14:10:50.976Z,8.90
2022-09-24T14:13:26.737Z,12.13
2022-09-24T14:15:54.147Z,8.60
2022-09-24T14:18:22.169Z,7.53
2022-09-24T14:20:58.764Z,6.63
2022-09-24T14:23:28.896Z,6.47
2022-09-24T14:25:56.929Z,7.28
2022-09-24T14:28:24.517Z,6.70
2022-09-24T14:30:53.557Z,8.50
2022-09-24T14:33:25.765Z,8.00
2022-09-24T14:35:54.760Z,8.52
2022-09-24T14:38:35.698Z,7.78
2022-09-24T14:41:08.984Z,9.27
2022-09-24T14:43:42.289Z,8.57
2022-09-24T14:46:15.225Z,8.32
2022-09-24T14:48:44.042Z,10.35
2022-09-24T14:51:30.478Z,8.63
2022-09-24T14:54:00.665Z,6.03
2022-09-24T14:56:29.305Z,9.90
2022-09-24T14:58:56.468Z,5.95
2022-09-24T15:01:25.107Z,8.10
2022-09-24T15:03:56.535Z,8.50
2022-09-24T15:06:32.127Z,7.13
2022-09-24T15:09:05.445Z,7.53
2022-09-24T15:11:34.400Z,10.35
2022-09-24T15:14:16.714Z,8.48
2022-09-24T15:16:46.780Z,8.68
2022-09-24T15:19:32.815Z,7.70
2022-09-24T15:22:00.223Z,11.13
2022-09-24T15:24:27.528Z,6.53
2022-09-24T15:27:05.529Z,8.70
2022-09-24T15:29:32.882Z,9.57
2022-09-24T15:32:00.304Z,7.15
2022-09-24T15:34:28.962Z,7.50
2022-09-24T15:36:59.343Z,8.32
2022-09-24T15:39:27.366Z,11.00
2022-09-24T15:41:54.515Z,6.25
2022-09-24T15:44:29.747Z,12.38
2022-09-24T15:47:00.225Z,9.45
2022-09-24T15:49:27.439Z,8.77
2022-09-24T15:52:07.157Z,7.57
2022-09-24T15:54:34.278Z,10.27
2022-09-24T15:57:02.324Z,7.85
2022-09-24T15:59:29.574Z,7.60
2022-09-24T16:01:59.657Z,8.25
2022-09-24T16:04:26.849Z,7.72
2022-09-24T16:06:54.036Z,9.55
2022-09-24T16:09:21.168Z,6.97
2022-09-24T16:11:48.362Z,8.43
2022-09-24T16:14:15.531Z,8.27
2022-09-24T16:16:42.700Z,8.13
2022-09-24T16:19:10.018Z,9.23
2022-09-24T16:21:37.595Z,7.35
2022-09-24T16:24:04.819Z,13.40
2022-09-24T16:26:32.072Z,7.55
2022-09-24T16:28:59.221Z,8.85
2022-09-24T16:31:26.426Z,6.03
2022-09-24T16:33:54.111Z,7.65
2022-09-24T16:36:23.716Z,9.68
2022-09-24T16:38:50.865Z,5.60
2022-09-24T16:41:18.041Z,8.95
2022-09-24T16:43:45.311Z,12.15
2022-09-24T16:46:17.928Z,7.00
2022-09-24T16:48:49.700Z,6.82
2022-09-24T16:51:17.360Z,10.35
2022-09-24T16:53:48.913Z,13.10
2022-09-24T16:56:17.669Z,13.10
2022-09-24T16:58:45.963Z,10.73
2022-09-24T17:01:14.511Z,9.40
2022-09-24T17:03:41.790Z,5.18
2022-09-24T17:06:09.307Z,9.02
2022-09-24T17:08:55.953Z,12.32
2022-09-24T17:11:23.805Z,8.70
2022-09-24T17:13:50.948Z,9.13
2022-09-24T17:16:18.871Z,7.90
2022-09-24T17:18:47.039Z,8.00
2022-09-24T17:21:14.969Z,9.02
2022-09-24T17:23:42.106Z,11.43
2022-09-24T17:26:16.227Z,7.22
2022-09-24T17:28:44.612Z,6.40
2022-09-24T17:31:12.774Z,7.10
2022-09-24T17:33:44.056Z,10.65
2022-09-24T17:36:14.000Z,6.95
2022-09-24T17:38:41.139Z,7.45
2022-09-24T17:41:10.070Z,5.50
2022-09-24T17:43:37.686Z,5.20
2022-09-24T17:46:06.677Z,4.30
2022-09-24T17:48:38.183Z,6.07
2022-09-24T17:51:06.869Z,5.95
2022-09-24T17:53:34.884Z,3.72
2022-09-24T17:56:02.409Z,5.70
2022-09-24T17:58:29.586Z,7.03
2022-09-24T18:00:56.766Z,5.63
2022-09-24T18:03:23.896Z,8.68
2022-09-24T18:05:51.040Z,6.03
2022-09-24T18:08:18.198Z,6.15
2022-09-24T18:10:45.350Z,8.10
2022-09-24T18:13:14.161Z,8.02
2022-09-24T18:15:42.379Z,8.50
2022-09-24T18:18:09.601Z,6.93
2022-09-24T18:20:37.421Z,10.82
2022-09-24T18:23:04.529Z,6.60
2022-09-24T18:25:31.949Z,7.90
2022-09-24T18:28:01.571Z,12.30
2022-09-24T18:30:28.709Z,19.50
2022-09-24T18:32:55.919Z,26.63
2022-09-24T18:35:23.066Z,24.45
2022-09-24T18:37:50.215Z,20.42
2022-09-24T18:40:17.579Z,21.02
2022-09-24T18:42:44.755Z,9.40
2022-09-24T18:45:12.183Z,9.98
2022-09-24T18:47:39.385Z,14.55
2022-09-24T18:50:06.862Z,15.75
2022-09-24T18:52:34.518Z,16.75
2022-09-24T18:55:02.496Z,14.75
2022-09-24T18:57:29.611Z,15.20
2022-09-24T18:59:56.786Z,14.98
2022-09-24T19:02:25.208Z,15.70
2022-09-24T19:04:52.963Z,17.70
2022-09-24T19:07:20.219Z,15.98
2022-09-24T19:09:47.378Z,17.52
2022-09-24T19:12:14.572Z,16.58
2022-09-24T19:14:42.484Z,20.75
2022-09-24T19:17:09.725Z,16.15
2022-09-24T19:19:36.878Z,24.48
2022-09-24T19:22:04.156Z,21.35
2022-09-24T19:24:31.356Z,19.10
2022-09-24T19:26:58.557Z,15.18
2022-09-24T19:29:25.684Z,19.17
2022-09-24T19:31:53.016Z,16.08
2022-09-24T19:34:21.275Z,28.80
2022-09-24T19:36:48.460Z,23.25
2022-09-24T19:39:16.699Z,22.88
2022-09-24T19:41:44.401Z,20.45
2022-09-24T19:44:12.006Z,20.88
2022-09-24T19:46:39.839Z,15.88
2022-09-24T19:49:07.462Z,17.23
2022-09-24T19:51:35.058Z,22.52
2022-09-24T19:54:07.023Z,17.67
2022-09-24T19:56:35.323Z,35.67
2022-09-24T19:59:02.802Z,54.55
2022-09-24T20:01:31.067Z,30.35
2022-09-24T20:03:59.632Z,21.15
2022-09-24T20:06:28.967Z,21.17
2022-09-24T20:08:57.092Z,20.35
2022-09-24T20:11:25.525Z,19.67
2022-09-24T20:13:53.705Z,18.38
2022-09-24T20:16:21.839Z,21.48
2022-09-24T20:18:49.827Z,18.45
2022-09-24T20:21:17.780Z,23.20
2022-09-24T20:23:48.747Z,24.42
2022-09-24T20:26:35.609Z,25.70
2022-09-24T20:29:03.186Z,18.23
2022-09-24T20:31:30.859Z,19.80
2022-09-24T20:33:58.508Z,19.45
2022-09-24T20:36:25.644Z,15.82
2022-09-24T20:38:53.337Z,18.92
2022-09-24T20:41:21.668Z,24.88
2022-09-24T20:43:48.833Z,23.70
2022-09-24T20:46:21.925Z,17.33
2022-09-24T20:48:49.397Z,20.10
2022-09-24T20:51:18.271Z,17.63
2022-09-24T20:53:46.222Z,19.90
2022-09-24T20:56:13.635Z,15.00
2022-09-24T20:58:40.783Z,18.80
2022-09-24T21:01:09.159Z,23.70
2022-09-24T21:03:44.326Z,28.45
2022-09-24T21:06:13.118Z,29.95
2022-09-24T21:08:41.815Z,30.70
2022-09-24T21:11:10.111Z,26.58
2022-09-24T21:13:40.993Z,40.63
2022-09-24T21:16:09.513Z,31.75
2022-09-24T21:18:44.311Z,26.90
2022-09-24T21:21:14.253Z,23.55
2022-09-24T21:23:41.972Z,25.08
2022-09-24T21:26:15.093Z,20.88
2022-09-24T21:28:43.536Z,26.10
2022-09-24T21:31:10.897Z,22.67
2022-09-24T21:33:38.151Z,19.48
2022-09-24T21:36:06.348Z,18.63
2022-09-24T21:38:33.894Z,20.40
2022-09-24T21:41:02.801Z,16.17
2022-09-24T21:43:34.646Z,22.88
2022-09-24T21:46:06.620Z,24.95
2022-09-24T21:48:34.401Z,24.70
2022-09-24T21:51:05.655Z,21.20
2022-09-24T21:53:33.647Z,21.20
2022-09-24T21:56:00.933Z,19.98
2022-09-24T21:58:29.707Z,22.30
2022-09-24T22:01:00.923Z,27.08
2022-09-24T22:03:30.720Z,22.15
2022-09-24T22:06:00.137Z,26.08
2022-09-24T22:08:29.092Z,22.13
2022-09-24T22:11:03.688Z,25.20
2022-09-24T22:13:31.564Z,28.92
2022-09-24T22:15:59.966Z,25.10
2022-09-24T22:18:27.951Z,28.58
2022-09-24T22:20:55.947Z,25.10
2022-09-24T22:23:23.295Z,29.98
2022-09-24T22:25:59.890Z,29.95
2022-09-24T22:28:28.203Z,29.17
2022-09-24T22:30:56.781Z,37.67
2022-09-24T22:33:43.028Z,31.75
2022-09-24T22:36:10.249Z,27.60
2022-09-24T22:38:37.513Z,31.92
2022-09-24T22:41:05.452Z,35.95
2022-09-24T22:43:33.192Z,32.88
2022-09-24T22:46:00.719Z,32.55
2022-09-24T22:48:27.998Z,30.13
2022-09-24T22:50:55.214Z,29.48
2022-09-24T22:53:22.711Z,29.90
2022-09-24T22:55:52.663Z,32.42
2022-09-24T22:58:20.141Z,26.42
2022-09-24T23:00:47.295Z,24.13
2022-09-24T23:03:14.431Z,35.47
2022-09-24T23:05:41.846Z,25.77
2022-09-24T23:08:08.971Z,30.40
2022-09-24T23:10:36.093Z,23.30
2022-09-24T23:13:03.222Z,27.27
2022-09-24T23:15:31.059Z,27.98
2022-09-24T23:17:58.170Z,28.48
2022-09-24T23:20:25.303Z,28.50
2022-09-24T23:22:52.453Z,30.77
2022-09-24T23:25:19.563Z,24.23
2022-09-24T23:27:46.693Z,29.35
2022-09-24T23:30:13.881Z,27.58
2022-09-24T23:32:41.047Z,23.92
2022-09-24T23:35:08.446Z,24.23
2022-09-24T23:37:36.233Z,21.73
2022-09-24T23:40:03.972Z,23.70
2022-09-24T23:42:31.379Z,22.65
2022-09-24T23:44:58.600Z,23.48
2022-09-24T23:47:25.723Z,24.75
2022-09-24T23:49:52.850Z,22.40
2022-09-24T23:52:19.985Z,20.27
2022-09-24T23:54:47.615Z,23.50
2022-09-24T23:57:15.502Z,20.90
2022-09-24T23:59:42.607Z,21.13
